createdAt,value
2023-02-11T00:00:21.377Z,102072.69
2023-02-11T00:02:48.273Z,102066.84
2023-02-11T00:05:15.412Z,102064.13
2023-02-11T00:07:42.180Z,102052.91
2023-02-11T00:10:09.387Z,102058.06
2023-02-11T00:12:36.922Z,102067.28
2023-02-11T00:15:04.562Z,102045.94
2023-02-11T00:17:32.357Z,102056.88
2023-02-11T00:19:59.146Z,102032.97
2023-02-11T00:22:25.880Z,102028.41
2023-02-11T00:24:53.329Z,102022.25
2023-02-11T00:27:20.102Z,102003.31
2023-02-11T00:29:46.918Z,101979.09
2023-02-11T00:32:13.692Z,101974.06
2023-02-11T00:34:40.462Z,101979.00
2023-02-11T00:37:07.233Z,101967.91
2023-02-11T00:39:33.988Z,101949.81
2023-02-11T00:42:00.799Z,101937.75
2023-02-11T00:44:27.531Z,101943.56
2023-02-11T00:46:54.306Z,101922.00
2023-02-11T00:49:21.076Z,101915.97
2023-02-11T00:51:47.859Z,101922.69
2023-02-11T00:54:14.569Z,101887.53
2023-02-11T00:56:41.380Z,101886.63
2023-02-11T00:59:08.227Z,101875.41
2023-02-11T01:01:35.643Z,101882.13
2023-02-11T01:04:02.478Z,101882.28
2023-02-11T01:06:29.210Z,101865.78
2023-02-11T01:08:56.002Z,101858.00
2023-02-11T01:11:22.821Z,101851.84
2023-02-11T01:13:49.925Z,101854.31
2023-02-11T01:16:16.910Z,101854.34
2023-02-11T01:18:44.512Z,101853.66
2023-02-11T01:21:11.535Z,101856.66
2023-02-11T01:23:38.368Z,101840.50
2023-02-11T01:26:05.457Z,101846.97
2023-02-11T01:28:32.289Z,101847.97
2023-02-11T01:31:00.651Z,101843.56
2023-02-11T01:33:27.550Z,101835.88
2023-02-11T01:35:54.347Z,101831.56
2023-02-11T01:38:25.616Z,101828.91
2023-02-11T01:41:00.247Z,101821.28
2023-02-11T01:43:27.853Z,101812.00
2023-02-11T01:46:13.777Z,101810.97
2023-02-11T01:48:45.900Z,101791.47
2023-02-11T01:51:31.264Z,101787.97
2023-02-11T01:54:16.555Z,101784.59
2023-02-11T01:57:06.738Z,101774.38
2023-02-11T01:59:44.521Z,101771.03
2023-02-11T02:02:12.720Z,101741.16
2023-02-11T02:04:48.646Z,101749.63
2023-02-11T02:07:20.115Z,101758.28
2023-02-11T02:09:50.076Z,101726.66
2023-02-11T02:12:16.842Z,101737.66
2023-02-11T02:14:43.592Z,101739.41
2023-02-11T02:17:37.788Z,101738.63
2023-02-11T02:20:04.500Z,101756.75
2023-02-11T02:22:54.823Z,101734.38
2023-02-11T02:25:43.194Z,101724.94
2023-02-11T02:28:47.187Z,101736.13
2023-02-11T02:31:39.028Z,101719.75
2023-02-11T02:34:09.574Z,101729.34
2023-02-11T02:37:11.157Z,101722.38
2023-02-11T02:39:37.958Z,101711.34
2023-02-11T02:42:05.028Z,101688.84
2023-02-11T02:44:31.822Z,101694.88
2023-02-11T02:46:58.695Z,101691.28
2023-02-11T02:49:25.550Z,101690.53
2023-02-11T02:52:13.882Z,101686.88
2023-02-11T02:55:02.493Z,101673.09
2023-02-11T02:57:53.885Z,101670.50
2023-02-11T03:00:52.246Z,101644.88
2023-02-11T03:03:37.731Z,101651.50
2023-02-11T03:06:11.814Z,101652.41
2023-02-11T03:08:47.000Z,101643.72
2023-02-11T03:11:15.815Z,101651.34
2023-02-11T03:13:42.722Z,101643.66
2023-02-11T03:16:12.531Z,101636.63
2023-02-11T03:18:41.250Z,101613.56
2023-02-11T03:21:08.890Z,101613.66
2023-02-11T03:23:57.488Z,101617.66
2023-02-11T03:26:49.251Z,101621.84
2023-02-11T03:29:54.677Z,101621.84
2023-02-11T03:32:28.372Z,101608.81
2023-02-11T03:35:00.315Z,101610.66
2023-02-11T03:37:41.271Z,101601.38
2023-02-11T03:40:08.269Z,101613.94
2023-02-11T03:43:05.534Z,101604.47
2023-02-11T03:45:32.376Z,101579.81
2023-02-11T03:48:26.362Z,101587.03
2023-02-11T03:50:53.134Z,101581.31
2023-02-11T03:53:20.757Z,101594.03
2023-02-11T03:55:48.060Z,101586.16
2023-02-11T03:58:15.102Z,101586.09
2023-02-11T04:00:42.772Z,101571.09
2023-02-11T04:03:09.745Z,101575.22
2023-02-11T04:05:36.652Z,101588.06
2023-02-11T04:08:03.622Z,101581.47
2023-02-11T04:10:30.463Z,101577.94
2023-02-11T04:12:57.276Z,101576.34
2023-02-11T04:15:24.213Z,101569.44
2023-02-11T04:17:51.216Z,101550.38
2023-02-11T04:20:18.066Z,101551.09
2023-02-11T04:22:44.862Z,101543.59
2023-02-11T04:25:11.691Z,101552.88
2023-02-11T04:27:38.587Z,101547.53
2023-02-11T04:30:06.096Z,101533.91
2023-02-11T04:32:32.882Z,101533.22
2023-02-11T04:34:59.674Z,101532.38
2023-02-11T04:37:26.463Z,101530.63
2023-02-11T04:39:53.263Z,101544.09
2023-02-11T04:42:20.055Z,101533.16
2023-02-11T04:44:46.854Z,101518.91
2023-02-11T04:47:15.350Z,101520.94
2023-02-11T04:49:42.456Z,101511.25
2023-02-11T04:52:09.392Z,101512.25
2023-02-11T04:54:36.196Z,101516.53
2023-02-11T04:57:03.111Z,101512.09
2023-02-11T04:59:29.917Z,101492.38
2023-02-11T05:01:56.989Z,101476.22
2023-02-11T05:04:23.880Z,101465.53
2023-02-11T05:06:50.757Z,101461.09
2023-02-11T05:09:17.839Z,101434.44
2023-02-11T05:11:44.658Z,101429.56
2023-02-11T05:14:11.481Z,101432.84
2023-02-11T05:16:38.357Z,101429.31
2023-02-11T05:19:05.203Z,101417.03
2023-02-11T05:21:32.042Z,101416.19
2023-02-11T05:23:58.925Z,101393.91
2023-02-11T05:26:25.919Z,101406.75
2023-02-11T05:28:52.703Z,101408.41
2023-02-11T05:31:19.591Z,101411.94
2023-02-11T05:33:46.502Z,101383.59
2023-02-11T05:36:13.622Z,101395.41
2023-02-11T05:38:40.812Z,101389.28
2023-02-11T05:41:07.628Z,101382.16
2023-02-11T05:43:37.252Z,101361.94
2023-02-11T05:46:04.635Z,101381.34
2023-02-11T05:48:31.609Z,101368.66
2023-02-11T05:50:58.455Z,101362.38
2023-02-11T05:53:25.265Z,101357.75
2023-02-11T05:55:52.427Z,101343.41
2023-02-11T05:58:19.399Z,101352.66
2023-02-11T06:00:46.214Z,101338.78
2023-02-11T06:03:13.089Z,101346.72
2023-02-11T06:05:39.917Z,101342.03
2023-02-11T06:08:06.770Z,101321.63
2023-02-11T06:10:33.551Z,101332.50
2023-02-11T06:13:01.254Z,101327.78
2023-02-11T06:15:28.140Z,101333.75
2023-02-11T06:17:54.893Z,101309.81
2023-02-11T06:20:21.784Z,101306.13
2023-02-11T06:22:48.588Z,101321.50
2023-02-11T06:25:15.426Z,101311.13
2023-02-11T06:27:42.235Z,101321.34
2023-02-11T06:30:09.477Z,101310.03
2023-02-11T06:32:43.960Z,101321.75
2023-02-11T06:35:12.563Z,101313.22
2023-02-11T06:37:40.279Z,101296.81
2023-02-11T06:40:07.209Z,101308.59
2023-02-11T06:42:34.715Z,101296.28
2023-02-11T06:45:01.569Z,101314.53
2023-02-11T06:47:28.326Z,101317.44
2023-02-11T06:49:55.155Z,101310.47
2023-02-11T06:52:21.957Z,101315.66
2023-02-11T06:54:48.758Z,101316.22
2023-02-11T06:57:15.554Z,101339.97
2023-02-11T06:59:42.366Z,101341.34
2023-02-11T07:02:12.428Z,101341.63
2023-02-11T07:04:39.289Z,101349.91
2023-02-11T07:07:06.191Z,101362.50
2023-02-11T07:09:32.986Z,101334.22
2023-02-11T07:11:59.854Z,101345.19
2023-02-11T07:14:26.729Z,101354.81
2023-02-11T07:16:53.495Z,101359.34
2023-02-11T07:19:20.265Z,101330.72
2023-02-11T07:21:48.730Z,101347.97
2023-02-11T07:24:15.799Z,101347.63
2023-02-11T07:26:42.644Z,101317.00
2023-02-11T07:29:09.433Z,101311.63
2023-02-11T07:31:36.382Z,101302.16
2023-02-11T07:34:03.386Z,101295.09
2023-02-11T07:36:31.991Z,101298.06
2023-02-11T07:39:00.153Z,101272.72
2023-02-11T07:41:27.266Z,101296.56
2023-02-11T07:43:54.158Z,101303.84
2023-02-11T07:46:23.039Z,101268.13
2023-02-11T07:48:49.876Z,101290.50
2023-02-11T07:51:21.716Z,101276.50
2023-02-11T07:53:48.569Z,101262.91
2023-02-11T07:56:15.968Z,101259.19
2023-02-11T07:58:43.261Z,101270.44
2023-02-11T08:01:25.978Z,101284.91
2023-02-11T08:03:52.920Z,101260.88
2023-02-11T08:06:20.533Z,101278.06
2023-02-11T08:08:47.638Z,101265.09
2023-02-11T08:11:16.484Z,101255.72
2023-02-11T08:13:43.335Z,101271.22
2023-02-11T08:16:10.602Z,101279.94
2023-02-11T08:18:37.409Z,101262.78
2023-02-11T08:21:08.452Z,101259.22
2023-02-11T08:23:42.262Z,101269.09
2023-02-11T08:26:11.875Z,101276.91
2023-02-11T08:28:39.470Z,101259.56
2023-02-11T08:31:07.754Z,101261.50
2023-02-11T08:33:34.801Z,101240.25
2023-02-11T08:36:02.373Z,101195.50
2023-02-11T08:38:29.146Z,101212.97
2023-02-11T08:40:55.969Z,101219.28
2023-02-11T08:43:23.656Z,101209.81
2023-02-11T08:45:50.797Z,101207.28
2023-02-11T08:48:17.756Z,101184.94
2023-02-11T08:50:44.557Z,101205.31
2023-02-11T08:53:11.388Z,101201.84
2023-02-11T08:55:38.178Z,101194.03
2023-02-11T08:58:05.120Z,101207.28
2023-02-11T09:00:31.989Z,101219.75
2023-02-11T09:02:59.128Z,101216.56
2023-02-11T09:05:25.992Z,101220.25
2023-02-11T09:07:52.748Z,101231.72
2023-02-11T09:10:19.789Z,101231.13
2023-02-11T09:12:46.568Z,101229.78
2023-02-11T09:15:13.568Z,101236.63
2023-02-11T09:17:40.331Z,101238.53
2023-02-11T09:20:09.823Z,101225.16
2023-02-11T09:22:37.529Z,101244.66
2023-02-11T09:25:04.353Z,101241.44
2023-02-11T09:27:31.129Z,101219.19
2023-02-11T09:29:57.908Z,101211.81
2023-02-11T09:32:24.729Z,101215.59
2023-02-11T09:34:51.532Z,101215.50
2023-02-11T09:37:18.338Z,101215.50
2023-02-11T09:39:46.292Z,101221.31
2023-02-11T09:42:12.997Z,101230.63
2023-02-11T09:44:39.925Z,101247.44
2023-02-11T09:47:27.086Z,101248.63
2023-02-11T09:50:35.901Z,101259.88
2023-02-11T09:53:26.009Z,101273.13
2023-02-11T09:55:57.122Z,101266.44
2023-02-11T09:58:23.795Z,101268.31
2023-02-11T10:00:59.556Z,101264.06
2023-02-11T10:03:29.071Z,101267.53
2023-02-11T10:06:10.919Z,101282.16
2023-02-11T10:09:02.475Z,101256.47
2023-02-11T10:11:56.189Z,101241.25
2023-02-11T10:14:48.626Z,101222.38
2023-02-11T10:17:28.091Z,101242.75
2023-02-11T10:19:57.666Z,101242.94
2023-02-11T10:22:36.890Z,101236.66
2023-02-11T10:25:27.968Z,101253.63
2023-02-11T10:27:56.199Z,101263.06
2023-02-11T10:30:36.775Z,101272.91
2023-02-11T10:33:04.878Z,101286.13
2023-02-11T10:35:31.810Z,101294.94
2023-02-11T10:37:59.476Z,101299.75
2023-02-11T10:40:27.813Z,101315.19
2023-02-11T10:42:57.725Z,101316.59
2023-02-11T10:45:34.995Z,101327.91
2023-02-11T10:48:03.533Z,101346.94
2023-02-11T10:50:33.529Z,101339.13
2023-02-11T10:53:21.102Z,101356.81
2023-02-11T10:55:55.415Z,101343.44
2023-02-11T10:58:28.654Z,101347.19
2023-02-11T11:00:56.532Z,101359.91
2023-02-11T11:03:24.503Z,101361.00
2023-02-11T11:06:08.761Z,101380.75
2023-02-11T11:08:49.593Z,101385.28
2023-02-11T11:11:17.995Z,101385.38
2023-02-11T11:13:59.289Z,101391.69
2023-02-11T11:16:35.381Z,101403.22
2023-02-11T11:19:08.252Z,101407.63
2023-02-11T11:21:41.912Z,101419.50
2023-02-11T11:24:17.852Z,101410.94
2023-02-11T11:26:49.533Z,101405.72
2023-02-11T11:29:27.038Z,101420.44
2023-02-11T11:32:04.451Z,101410.56
2023-02-11T11:34:37.306Z,101417.28
2023-02-11T11:37:11.836Z,101421.69
2023-02-11T11:39:39.181Z,101418.31
2023-02-11T11:42:33.333Z,101437.34
2023-02-11T11:45:24.877Z,101442.44
2023-02-11T11:47:59.130Z,101440.06
2023-02-11T11:50:49.469Z,101452.41
2023-02-11T11:53:21.309Z,101444.06
2023-02-11T11:56:08.143Z,101427.53
2023-02-11T11:58:34.990Z,101443.91
2023-02-11T12:01:39.330Z,101446.91
2023-02-11T12:04:30.785Z,101457.63
2023-02-11T12:07:35.347Z,101458.00
2023-02-11T12:10:14.524Z,101470.25
2023-02-11T12:12:46.785Z,101465.19
2023-02-11T12:15:51.249Z,101470.91
2023-02-11T12:18:23.352Z,101471.78
2023-02-11T12:21:12.984Z,101463.72
2023-02-11T12:23:55.531Z,101479.34
2023-02-11T12:26:32.225Z,101473.34
2023-02-11T12:29:17.326Z,101485.38
2023-02-11T12:31:49.954Z,101479.59
2023-02-11T12:34:22.760Z,101487.44
2023-02-11T12:36:54.581Z,101497.44
2023-02-11T12:39:42.547Z,101499.25
2023-02-11T12:42:44.208Z,101510.59
2023-02-11T12:45:19.348Z,101503.44
2023-02-11T12:48:05.682Z,101516.69
2023-02-11T12:50:45.473Z,101515.22
2023-02-11T12:53:41.710Z,101520.00
2023-02-11T12:56:31.643Z,101522.00
2023-02-11T12:58:59.658Z,101507.97
2023-02-11T13:01:28.088Z,101512.63
2023-02-11T13:03:56.467Z,101517.25
2023-02-11T13:06:28.941Z,101513.56
2023-02-11T13:09:06.196Z,101512.81
2023-02-11T13:11:39.718Z,101513.63
2023-02-11T13:14:32.841Z,101536.97
2023-02-11T13:16:59.910Z,101517.44
2023-02-11T13:19:43.476Z,101526.47
2023-02-11T13:22:31.938Z,101549.06
2023-02-11T13:25:02.843Z,101532.50
2023-02-11T13:27:47.934Z,101556.44
2023-02-11T13:30:33.992Z,101552.13
2023-02-11T13:33:01.141Z,101560.13
2023-02-11T13:35:41.538Z,101556.44
2023-02-11T13:38:28.192Z,101559.28
2023-02-11T13:41:17.384Z,101559.16
2023-02-11T13:43:44.210Z,101555.75
2023-02-11T13:46:12.148Z,101566.94
2023-02-11T13:48:57.459Z,101580.13
2023-02-11T13:51:43.134Z,101587.41
2023-02-11T13:54:19.047Z,101582.91
2023-02-11T13:56:46.452Z,101569.47
2023-02-11T13:59:25.469Z,101603.25
2023-02-11T14:02:25.065Z,101596.59
2023-02-11T14:05:42.487Z,101612.66
2023-02-11T14:08:30.604Z,101611.84
2023-02-11T14:11:00.348Z,101621.59
2023-02-11T14:13:28.176Z,101631.22
2023-02-11T14:16:37.456Z,101632.56
2023-02-11T14:19:06.534Z,101633.00
2023-02-11T14:21:40.510Z,101637.28
2023-02-11T14:24:13.068Z,101651.94
2023-02-11T14:27:07.817Z,101655.47
2023-02-11T14:29:37.395Z,101665.69
2023-02-11T14:32:49.219Z,101677.06
2023-02-11T14:35:49.473Z,101675.25
2023-02-11T14:38:54.841Z,101669.19
2023-02-11T14:41:26.460Z,101691.91
2023-02-11T14:44:01.340Z,101698.31
2023-02-11T14:46:30.358Z,101702.03
2023-02-11T14:48:58.836Z,101707.69
2023-02-11T14:51:36.241Z,101718.59
2023-02-11T14:54:25.331Z,101725.94
2023-02-11T14:57:15.275Z,101730.06
2023-02-11T15:00:04.263Z,101752.41
2023-02-11T15:02:36.442Z,101761.81
2023-02-11T15:05:22.932Z,101773.53
2023-02-11T15:07:54.921Z,101765.09
2023-02-11T15:10:43.680Z,101797.34
2023-02-11T15:13:21.694Z,101785.53
2023-02-11T15:15:48.805Z,101807.44
2023-02-11T15:18:22.890Z,101816.75
2023-02-11T15:20:50.357Z,101813.19
2023-02-11T15:23:22.683Z,101817.22
2023-02-11T15:25:55.620Z,101807.84
2023-02-11T15:28:29.095Z,101808.09
2023-02-11T15:31:04.082Z,101817.38
2023-02-11T15:33:32.419Z,101831.44
2023-02-11T15:36:00.298Z,101837.13
2023-02-11T15:38:27.129Z,101839.38
2023-02-11T15:41:04.440Z,101857.72
2023-02-11T15:43:51.941Z,101869.84
2023-02-11T15:46:20.131Z,101867.59
2023-02-11T15:48:52.337Z,101882.78
2023-02-11T15:51:23.313Z,101891.06
2023-02-11T15:54:11.163Z,101888.69
2023-02-11T15:56:45.125Z,101908.28
2023-02-11T15:59:35.439Z,101923.22
2023-02-11T16:02:14.163Z,101920.06
2023-02-11T16:04:51.811Z,101937.19
2023-02-11T16:07:52.539Z,101952.66
2023-02-11T16:10:24.180Z,101947.63
2023-02-11T16:12:55.877Z,101957.44
2023-02-11T16:15:39.721Z,101970.50
2023-02-11T16:18:38.674Z,101982.00
2023-02-11T16:21:11.918Z,101997.59
2023-02-11T16:23:39.879Z,102004.72
2023-02-11T16:26:21.275Z,102021.78
2023-02-11T16:28:48.342Z,102019.59
2023-02-11T16:31:15.328Z,102012.09
2023-02-11T16:33:42.181Z,102032.81
2023-02-11T16:36:17.280Z,102045.34
2023-02-11T16:38:44.167Z,102061.72
2023-02-11T16:41:12.877Z,102082.09
2023-02-11T16:43:40.309Z,102082.16
2023-02-11T16:46:07.197Z,102088.91
2023-02-11T16:48:34.800Z,102095.09
2023-02-11T16:51:01.657Z,102104.56
2023-02-11T16:53:28.540Z,102108.94
2023-02-11T16:55:55.422Z,102112.63
2023-02-11T16:58:22.239Z,102118.91
2023-02-11T17:00:49.338Z,102123.47
2023-02-11T17:03:22.291Z,102124.41
2023-02-11T17:05:55.335Z,102157.97
2023-02-11T17:08:22.831Z,102147.38
2023-02-11T17:10:50.312Z,102167.09
2023-02-11T17:13:17.320Z,102174.13
2023-02-11T17:15:44.120Z,102176.03
2023-02-11T17:18:14.060Z,102189.09
2023-02-11T17:20:41.428Z,102193.63
2023-02-11T17:23:08.388Z,102206.81
2023-02-11T17:25:37.451Z,102194.44
2023-02-11T17:28:08.890Z,102209.78
2023-02-11T17:30:35.777Z,102214.69
2023-02-11T17:33:02.599Z,102229.56
2023-02-11T17:35:29.464Z,102248.59
2023-02-11T17:37:58.112Z,102249.81
2023-02-11T17:40:25.010Z,102252.81
2023-02-11T17:42:51.878Z,102273.69
2023-02-11T17:45:21.189Z,102280.00
2023-02-11T17:47:49.589Z,102289.63
2023-02-11T17:50:16.522Z,102292.50
2023-02-11T17:52:43.426Z,102288.56
2023-02-11T17:55:10.278Z,102300.84
2023-02-11T17:57:37.375Z,102296.88
2023-02-11T18:00:05.535Z,102302.22
2023-02-11T18:02:32.462Z,102309.88
2023-02-11T18:04:59.372Z,102319.81
2023-02-11T18:07:26.495Z,102312.22
2023-02-11T18:09:53.453Z,102328.72
2023-02-11T18:12:25.362Z,102340.78
2023-02-11T18:14:58.209Z,102349.53
2023-02-11T18:17:25.371Z,102357.53
2023-02-11T18:19:55.677Z,102357.66
2023-02-11T18:22:22.621Z,102364.00
2023-02-11T18:24:55.942Z,102376.13
2023-02-11T18:27:22.796Z,102349.09
2023-02-11T18:29:49.755Z,102374.75
2023-02-11T18:32:16.704Z,102366.53
2023-02-11T18:34:43.791Z,102376.19
2023-02-11T18:37:11.681Z,102394.59
2023-02-11T18:39:38.485Z,102385.59
2023-02-11T18:42:05.404Z,102393.50
2023-02-11T18:44:32.199Z,102394.66
2023-02-11T18:46:59.411Z,102393.31
2023-02-11T18:49:26.238Z,102415.50
2023-02-11T18:51:53.086Z,102423.88
2023-02-11T18:54:19.908Z,102425.09
2023-02-11T18:56:46.705Z,102437.09
2023-02-11T18:59:13.666Z,102433.66
2023-02-11T19:01:43.389Z,102456.75
2023-02-11T19:04:10.437Z,102447.41
2023-02-11T19:06:37.745Z,102466.34
2023-02-11T19:09:07.187Z,102466.16
2023-02-11T19:11:52.333Z,102473.88
2023-02-11T19:14:24.079Z,102477.31
2023-02-11T19:16:52.984Z,102486.94
2023-02-11T19:19:19.927Z,102493.88
2023-02-11T19:21:47.450Z,102490.75
2023-02-11T19:24:15.710Z,102501.97
2023-02-11T19:26:42.926Z,102510.66
2023-02-11T19:29:09.731Z,102527.03
2023-02-11T19:31:36.935Z,102536.34
2023-02-11T19:34:03.835Z,102538.97
2023-02-11T19:36:30.739Z,102536.47
2023-02-11T19:39:00.641Z,102534.66
2023-02-11T19:41:28.330Z,102535.84
2023-02-11T19:43:56.754Z,102551.44
2023-02-11T19:46:28.298Z,102563.91
2023-02-11T19:48:55.162Z,102554.97
2023-02-11T19:51:22.054Z,102568.88
2023-02-11T19:53:48.922Z,102581.03
2023-02-11T19:56:16.140Z,102587.91
2023-02-11T19:58:43.016Z,102592.88
2023-02-11T20:01:14.862Z,102604.13
2023-02-11T20:03:42.704Z,102612.50
2023-02-11T20:06:13.656Z,102613.28
2023-02-11T20:08:40.904Z,102615.88
2023-02-11T20:11:15.570Z,102613.44
2023-02-11T20:13:42.891Z,102622.91
2023-02-11T20:16:12.416Z,102634.09
2023-02-11T20:18:39.916Z,102628.25
2023-02-11T20:21:08.586Z,102635.94
2023-02-11T20:23:35.977Z,102646.19
2023-02-11T20:26:10.426Z,102641.13
2023-02-11T20:28:37.437Z,102642.78
2023-02-11T20:31:04.841Z,102645.50
2023-02-11T20:33:32.099Z,102647.25
2023-02-11T20:35:59.951Z,102657.41
2023-02-11T20:38:27.046Z,102671.28
2023-02-11T20:40:53.989Z,102678.97
2023-02-11T20:43:21.024Z,102674.81
2023-02-11T20:45:47.941Z,102694.63
2023-02-11T20:48:14.766Z,102690.47
2023-02-11T20:50:41.628Z,102699.88
2023-02-11T20:53:10.227Z,102700.00
2023-02-11T20:55:38.626Z,102708.50
2023-02-11T20:58:06.962Z,102708.63
2023-02-11T21:00:35.411Z,102725.81
2023-02-11T21:03:02.269Z,102718.06
2023-02-11T21:05:29.338Z,102728.28
2023-02-11T21:07:56.226Z,102729.25
2023-02-11T21:10:23.051Z,102737.91
2023-02-11T21:12:50.063Z,102743.09
2023-02-11T21:15:16.889Z,102749.16
2023-02-11T21:17:43.698Z,102741.47
2023-02-11T21:20:10.778Z,102744.97
2023-02-11T21:22:37.582Z,102753.59
2023-02-11T21:25:06.195Z,102750.97
2023-02-11T21:27:33.887Z,102751.25
2023-02-11T21:30:01.496Z,102765.09
2023-02-11T21:32:29.592Z,102766.94
2023-02-11T21:34:56.527Z,102772.16
2023-02-11T21:37:24.552Z,102767.06
2023-02-11T21:39:51.362Z,102768.03
2023-02-11T21:42:18.167Z,102783.50
2023-02-11T21:44:45.025Z,102787.84
2023-02-11T21:47:11.824Z,102777.75
2023-02-11T21:49:38.626Z,102785.53
2023-02-11T21:52:05.446Z,102789.88
2023-02-11T21:54:32.970Z,102789.28
2023-02-11T21:57:03.019Z,102802.13
2023-02-11T21:59:31.959Z,102804.81
2023-02-11T22:01:59.048Z,102810.13
2023-02-11T22:04:26.521Z,102810.19
2023-02-11T22:06:53.364Z,102808.53
2023-02-11T22:09:20.198Z,102809.34
2023-02-11T22:11:49.282Z,102815.28
2023-02-11T22:14:16.537Z,102810.22
2023-02-11T22:16:45.414Z,102805.19
2023-02-11T22:19:12.274Z,102819.50
2023-02-11T22:21:39.178Z,102838.22
2023-02-11T22:24:06.321Z,102842.47
2023-02-11T22:26:33.184Z,102840.81
2023-02-11T22:29:00.052Z,102847.66
2023-02-11T22:31:29.150Z,102838.41
2023-02-11T22:33:56.583Z,102815.47
2023-02-11T22:36:25.144Z,102855.59
2023-02-11T22:38:52.143Z,102847.97
2023-02-11T22:41:19.117Z,102850.47
2023-02-11T22:43:46.089Z,102855.66
2023-02-11T22:46:15.124Z,102846.41
2023-02-11T22:48:42.166Z,102863.38
2023-02-11T22:51:34.900Z,102875.50
2023-02-11T22:54:03.113Z,102868.91
2023-02-11T22:56:30.440Z,102864.91
2023-02-11T22:58:58.268Z,102880.34
2023-02-11T23:01:25.365Z,102872.91
2023-02-11T23:03:52.214Z,102885.84
2023-02-11T23:06:19.106Z,102893.69
2023-02-11T23:08:46.071Z,102889.53
2023-02-11T23:11:20.745Z,102897.31
2023-02-11T23:13:48.141Z,102889.53
2023-02-11T23:16:17.956Z,102899.88
2023-02-11T23:18:45.080Z,102885.28
2023-02-11T23:21:16.838Z,102905.84
2023-02-11T23:23:43.858Z,102899.84
2023-02-11T23:26:11.636Z,102911.78
2023-02-11T23:28:39.177Z,102916.81
2023-02-11T23:31:31.286Z,102903.25
2023-02-11T23:33:58.180Z,102915.09
2023-02-11T23:36:25.037Z,102924.47
2023-02-11T23:38:52.028Z,102919.41
2023-02-11T23:41:19.290Z,102929.63
2023-02-11T23:43:52.298Z,102934.81
2023-02-11T23:46:19.843Z,102937.41
2023-02-11T23:48:46.740Z,102945.16
2023-02-11T23:51:13.614Z,102942.56
2023-02-11T23:53:40.461Z,102945.16
2023-02-11T23:56:09.282Z,102961.47
2023-02-11T23:58:36.131Z,102964.91
